sensor_id;sensor_type;location;lat;lon;timestamp;P1;durP1;ratioP1;P2;durP2;ratioP2
17141;SDS011;32805;53.556;9.944;2022-11-11T00:01:03;6.72;;;2.78;;
17141;SDS011;32805;53.556;9.944;2022-11-11T00:03:53;6.45;;;2.38;;
17141;SDS011;32805;53.556;9.944;2022-11-11T00:06:40;5.38;;;2.90;;
17141;SDS011;32805;53.556;9.944;2022-11-11T00:09:27;6.55;;;2.30;;
17141;SDS011;32805;53.556;9.944;2022-11-11T00:12:14;5.57;;;2.20;;
17141;SDS011;32805;53.556;9.944;2022-11-11T00:15:03;6.22;;;2.65;;
17141;SDS011;32805;53.556;9.944;2022-11-11T00:17:50;6.03;;;2.38;;
17141;SDS011;32805;53.556;9.944;2022-11-11T00:20:56;7.55;;;2.55;;
17141;SDS011;32805;53.556;9.944;2022-11-11T00:24:12;6.55;;;2.78;;
17141;SDS011;32805;53.556;9.944;2022-11-11T00:27:24;7.43;;;2.78;;
17141;SDS011;32805;53.556;9.944;2022-11-11T00:30:10;7.03;;;2.60;;
17141;SDS011;32805;53.556;9.944;2022-11-11T00:32:57;6.90;;;2.95;;
17141;SDS011;32805;53.556;9.944;2022-11-11T00:35:43;8.52;;;3.85;;
17141;SDS011;32805;53.556;9.944;2022-11-11T00:38:39;6.47;;;3.17;;
17141;SDS011;32805;53.556;9.944;2022-11-11T00:41:33;8.57;;;3.95;;
17141;SDS011;32805;53.556;9.944;2022-11-11T00:44:20;7.75;;;3.47;;
17141;SDS011;32805;53.556;9.944;2022-11-11T00:47:07;7.30;;;3.10;;
17141;SDS011;32805;53.556;9.944;2022-11-11T00:50:12;8.43;;;4.05;;
17141;SDS011;32805;53.556;9.944;2022-11-11T00:53:18;9.80;;;4.40;;
17141;SDS011;32805;53.556;9.944;2022-11-11T00:56:11;7.95;;;3.70;;
17141;SDS011;32805;53.556;9.944;2022-11-11T00:58:58;9.05;;;3.83;;
17141;SDS011;32805;53.556;9.944;2022-11-11T01:01:46;10.77;;;4.25;;
17141;SDS011;32805;53.556;9.944;2022-11-11T01:04:32;10.63;;;5.18;;
17141;SDS011;32805;53.556;9.944;2022-11-11T01:07:18;8.77;;;4.80;;
17141;SDS011;32805;53.556;9.944;2022-11-11T01:10:05;10.85;;;4.50;;
17141;SDS011;32805;53.556;9.944;2022-11-11T01:12:52;8.98;;;4.97;;
17141;SDS011;32805;53.556;9.944;2022-11-11T01:15:57;7.75;;;4.05;;
17141;SDS011;32805;53.556;9.944;2022-11-11T01:18:46;7.60;;;4.43;;
17141;SDS011;32805;53.556;9.944;2022-11-11T01:21:33;8.82;;;4.90;;
17141;SDS011;32805;53.556;9.944;2022-11-11T01:24:19;6.03;;;3.90;;
17141;SDS011;32805;53.556;9.944;2022-11-11T01:27:06;9.30;;;4.22;;
17141;SDS011;32805;53.556;9.944;2022-11-11T01:29:52;11.15;;;4.53;;
17141;SDS011;32805;53.556;9.944;2022-11-11T01:32:38;10.73;;;4.60;;
17141;SDS011;32805;53.556;9.944;2022-11-11T01:35:26;7.97;;;4.20;;
17141;SDS011;32805;53.556;9.944;2022-11-11T01:38:13;7.97;;;4.53;;
17141;SDS011;32805;53.556;9.944;2022-11-11T01:40:59;8.90;;;4.45;;
17141;SDS011;32805;53.556;9.944;2022-11-11T01:44:12;8.07;;;4.03;;
17141;SDS011;32805;53.556;9.944;2022-11-11T01:47:04;13.70;;;4.30;;
17141;SDS011;32805;53.556;9.944;2022-11-11T01:49:53;8.88;;;5.05;;
17141;SDS011;32805;53.556;9.944;2022-11-11T01:52:42;10.48;;;4.40;;
17141;SDS011;32805;53.556;9.944;2022-11-11T01:55:30;10.10;;;4.55;;
17141;SDS011;32805;53.556;9.944;2022-11-11T01:58:17;10.77;;;4.50;;
17141;SDS011;32805;53.556;9.944;2022-11-11T02:01:05;9.82;;;5.82;;
17141;SDS011;32805;53.556;9.944;2022-11-11T02:03:52;7.18;;;4.38;;
17141;SDS011;32805;53.556;9.944;2022-11-11T02:06:59;7.15;;;4.20;;
17141;SDS011;32805;53.556;9.944;2022-11-11T02:09:50;8.93;;;4.20;;
17141;SDS011;32805;53.556;9.944;2022-11-11T02:12:39;7.68;;;4.18;;
17141;SDS011;32805;53.556;9.944;2022-11-11T02:15:48;7.20;;;4.43;;
17141;SDS011;32805;53.556;9.944;2022-11-11T02:18:34;6.47;;;4.32;;
17141;SDS011;32805;53.556;9.944;2022-11-11T02:21:22;8.38;;;4.43;;
17141;SDS011;32805;53.556;9.944;2022-11-11T02:24:14;6.05;;;4.55;;
17141;SDS011;32805;53.556;9.944;2022-11-11T02:27:03;7.30;;;3.83;;
17141;SDS011;32805;53.556;9.944;2022-11-11T02:29:54;10.75;;;5.22;;
17141;SDS011;32805;53.556;9.944;2022-11-11T02:32:43;6.88;;;3.55;;
17141;SDS011;32805;53.556;9.944;2022-11-11T02:35:32;17.38;;;4.47;;
17141;SDS011;32805;53.556;9.944;2022-11-11T02:38:20;8.50;;;3.92;;
17141;SDS011;32805;53.556;9.944;2022-11-11T02:41:09;8.20;;;3.47;;
17141;SDS011;32805;53.556;9.944;2022-11-11T02:44:13;7.88;;;3.55;;
17141;SDS011;32805;53.556;9.944;2022-11-11T02:46:59;7.03;;;3.40;;
17141;SDS011;32805;53.556;9.944;2022-11-11T02:49:45;7.28;;;3.83;;
17141;SDS011;32805;53.556;9.944;2022-11-11T02:52:31;6.63;;;3.63;;
17141;SDS011;32805;53.556;9.944;2022-11-11T02:55:18;8.20;;;3.90;;
17141;SDS011;32805;53.556;9.944;2022-11-11T02:58:06;6.28;;;3.40;;
17141;SDS011;32805;53.556;9.944;2022-11-11T03:00:52;8.13;;;4.00;;
17141;SDS011;32805;53.556;9.944;2022-11-11T03:03:38;9.55;;;3.60;;
17141;SDS011;32805;53.556;9.944;2022-11-11T03:06:25;9.45;;;3.67;;
17141;SDS011;32805;53.556;9.944;2022-11-11T03:09:11;8.10;;;3.97;;
17141;SDS011;32805;53.556;9.944;2022-11-11T03:11:58;10.70;;;3.95;;
17141;SDS011;32805;53.556;9.944;2022-11-11T03:14:45;5.50;;;4.03;;
17141;SDS011;32805;53.556;9.944;2022-11-11T03:17:32;6.65;;;3.38;;
17141;SDS011;32805;53.556;9.944;2022-11-11T03:20:23;9.93;;;3.38;;
17141;SDS011;32805;53.556;9.944;2022-11-11T03:23:27;5.20;;;3.58;;
17141;SDS011;32805;53.556;9.944;2022-11-11T03:26:14;9.23;;;3.70;;
17141;SDS011;32805;53.556;9.944;2022-11-11T03:29:00;8.68;;;3.80;;
17141;SDS011;32805;53.556;9.944;2022-11-11T03:31:48;6.55;;;3.75;;
17141;SDS011;32805;53.556;9.944;2022-11-11T03:34:34;5.68;;;3.53;;
17141;SDS011;32805;53.556;9.944;2022-11-11T03:37:20;7.90;;;4.68;;
17141;SDS011;32805;53.556;9.944;2022-11-11T03:40:25;8.65;;;4.72;;
17141;SDS011;32805;53.556;9.944;2022-11-11T03:43:11;8.63;;;3.75;;
17141;SDS011;32805;53.556;9.944;2022-11-11T03:45:59;10.95;;;4.00;;
17141;SDS011;32805;53.556;9.944;2022-11-11T03:48:48;6.85;;;3.63;;
17141;SDS011;32805;53.556;9.944;2022-11-11T03:51:34;8.45;;;4.45;;
17141;SDS011;32805;53.556;9.944;2022-11-11T03:54:21;6.63;;;3.35;;
17141;SDS011;32805;53.556;9.944;2022-11-11T03:57:07;6.90;;;3.65;;
17141;SDS011;32805;53.556;9.944;2022-11-11T04:00:12;8.82;;;3.78;;
17141;SDS011;32805;53.556;9.944;2022-11-11T04:03:00;9.73;;;4.18;;
17141;SDS011;32805;53.556;9.944;2022-11-11T04:06:08;6.35;;;3.85;;
17141;SDS011;32805;53.556;9.944;2022-11-11T04:09:13;8.63;;;4.10;;
17141;SDS011;32805;53.556;9.944;2022-11-11T04:12:17;8.98;;;4.82;;
17141;SDS011;32805;53.556;9.944;2022-11-11T04:15:04;9.57;;;3.65;;
17141;SDS011;32805;53.556;9.944;2022-11-11T04:18:08;7.10;;;4.35;;
17141;SDS011;32805;53.556;9.944;2022-11-11T04:20:54;9.23;;;3.90;;
17141;SDS011;32805;53.556;9.944;2022-11-11T04:24:01;9.70;;;4.57;;
17141;SDS011;32805;53.556;9.944;2022-11-11T04:26:47;11.90;;;5.28;;
17141;SDS011;32805;53.556;9.944;2022-11-11T04:29:33;8.48;;;4.35;;
17141;SDS011;32805;53.556;9.944;2022-11-11T04:32:20;8.90;;;5.13;;
17141;SDS011;32805;53.556;9.944;2022-11-11T04:35:26;9.93;;;4.70;;
17141;SDS011;32805;53.556;9.944;2022-11-11T04:38:13;8.27;;;4.53;;
17141;SDS011;32805;53.556;9.944;2022-11-11T04:41:18;6.15;;;4.03;;
17141;SDS011;32805;53.556;9.944;2022-11-11T04:44:04;6.93;;;4.47;;
17141;SDS011;32805;53.556;9.944;2022-11-11T04:47:08;10.18;;;4.70;;
17141;SDS011;32805;53.556;9.944;2022-11-11T04:49:55;7.70;;;4.68;;
17141;SDS011;32805;53.556;9.944;2022-11-11T04:52:42;11.82;;;5.32;;
17141;SDS011;32805;53.556;9.944;2022-11-11T04:55:28;10.77;;;4.53;;
17141;SDS011;32805;53.556;9.944;2022-11-11T04:58:34;11.05;;;4.55;;
17141;SDS011;32805;53.556;9.944;2022-11-11T05:01:20;10.25;;;5.40;;
17141;SDS011;32805;53.556;9.944;2022-11-11T05:04:21;5.97;;;4.28;;
17141;SDS011;32805;53.556;9.944;2022-11-11T05:07:07;9.95;;;4.47;;
17141;SDS011;32805;53.556;9.944;2022-11-11T05:10:12;7.22;;;4.38;;
17141;SDS011;32805;53.556;9.944;2022-11-11T05:12:58;8.15;;;4.80;;
17141;SDS011;32805;53.556;9.944;2022-11-11T05:16:07;7.82;;;4.57;;
17141;SDS011;32805;53.556;9.944;2022-11-11T05:19:11;10.50;;;4.97;;
17141;SDS011;32805;53.556;9.944;2022-11-11T05:22:17;11.07;;;4.85;;
17141;SDS011;32805;53.556;9.944;2022-11-11T05:25:07;10.55;;;5.25;;
17141;SDS011;32805;53.556;9.944;2022-11-11T05:28:09;11.60;;;5.40;;
17141;SDS011;32805;53.556;9.944;2022-11-11T05:30:55;10.00;;;4.63;;
17141;SDS011;32805;53.556;9.944;2022-11-11T05:33:43;8.65;;;5.70;;
17141;SDS011;32805;53.556;9.944;2022-11-11T05:36:29;9.90;;;5.03;;
17141;SDS011;32805;53.556;9.944;2022-11-11T05:39:15;12.20;;;5.32;;
17141;SDS011;32805;53.556;9.944;2022-11-11T05:42:01;8.50;;;5.18;;
17141;SDS011;32805;53.556;9.944;2022-11-11T05:44:48;8.25;;;5.22;;
17141;SDS011;32805;53.556;9.944;2022-11-11T05:47:34;9.73;;;5.68;;
17141;SDS011;32805;53.556;9.944;2022-11-11T05:50:22;10.07;;;4.82;;
17141;SDS011;32805;53.556;9.944;2022-11-11T05:53:08;7.13;;;4.75;;
17141;SDS011;32805;53.556;9.944;2022-11-11T05:55:54;9.25;;;5.85;;
17141;SDS011;32805;53.556;9.944;2022-11-11T05:58:40;7.03;;;5.45;;
17141;SDS011;32805;53.556;9.944;2022-11-11T06:01:33;14.80;;;6.68;;
17141;SDS011;32805;53.556;9.944;2022-11-11T06:04:20;9.65;;;6.03;;
17141;SDS011;32805;53.556;9.944;2022-11-11T06:07:08;10.65;;;7.60;;
17141;SDS011;32805;53.556;9.944;2022-11-11T06:09:55;10.48;;;6.60;;
17141;SDS011;32805;53.556;9.944;2022-11-11T06:13:01;9.18;;;5.75;;
17141;SDS011;32805;53.556;9.944;2022-11-11T06:15:49;11.18;;;6.63;;
17141;SDS011;32805;53.556;9.944;2022-11-11T06:18:35;9.82;;;6.53;;
17141;SDS011;32805;53.556;9.944;2022-11-11T06:21:22;11.18;;;6.43;;
17141;SDS011;32805;53.556;9.944;2022-11-11T06:24:13;11.60;;;6.57;;
17141;SDS011;32805;53.556;9.944;2022-11-11T06:26:59;13.73;;;7.28;;
17141;SDS011;32805;53.556;9.944;2022-11-11T06:29:45;11.40;;;5.82;;
17141;SDS011;32805;53.556;9.944;2022-11-11T06:32:31;11.20;;;7.05;;
17141;SDS011;32805;53.556;9.944;2022-11-11T06:35:17;15.60;;;8.10;;
17141;SDS011;32805;53.556;9.944;2022-11-11T06:38:03;10.27;;;6.95;;
17141;SDS011;32805;53.556;9.944;2022-11-11T06:40:52;12.45;;;8.15;;
17141;SDS011;32805;53.556;9.944;2022-11-11T06:43:38;10.88;;;7.60;;
17141;SDS011;32805;53.556;9.944;2022-11-11T06:46:25;13.95;;;8.23;;
17141;SDS011;32805;53.556;9.944;2022-11-11T06:49:11;15.93;;;8.32;;
17141;SDS011;32805;53.556;9.944;2022-11-11T06:51:58;17.00;;;8.63;;
17141;SDS011;32805;53.556;9.944;2022-11-11T06:54:44;14.30;;;8.07;;
17141;SDS011;32805;53.556;9.944;2022-11-11T06:57:32;18.75;;;10.18;;
17141;SDS011;32805;53.556;9.944;2022-11-11T07:00:18;15.45;;;7.38;;
17141;SDS011;32805;53.556;9.944;2022-11-11T07:03:06;12.55;;;8.40;;
17141;SDS011;32805;53.556;9.944;2022-11-11T07:05:52;19.20;;;10.10;;
17141;SDS011;32805;53.556;9.944;2022-11-11T07:08:43;19.20;;;10.73;;
17141;SDS011;32805;53.556;9.944;2022-11-11T07:11:29;17.13;;;9.30;;
17141;SDS011;32805;53.556;9.944;2022-11-11T07:14:17;18.17;;;10.07;;
17141;SDS011;32805;53.556;9.944;2022-11-11T07:17:03;14.73;;;8.90;;
17141;SDS011;32805;53.556;9.944;2022-11-11T07:19:50;15.23;;;8.23;;
17141;SDS011;32805;53.556;9.944;2022-11-11T07:22:36;13.73;;;10.00;;
17141;SDS011;32805;53.556;9.944;2022-11-11T07:25:23;22.65;;;10.02;;
17141;SDS011;32805;53.556;9.944;2022-11-11T07:28:09;16.83;;;10.32;;
17141;SDS011;32805;53.556;9.944;2022-11-11T07:30:57;15.65;;;9.32;;
17141;SDS011;32805;53.556;9.944;2022-11-11T07:33:43;20.13;;;9.70;;
17141;SDS011;32805;53.556;9.944;2022-11-11T07:36:29;23.73;;;10.52;;
17141;SDS011;32805;53.556;9.944;2022-11-11T07:39:15;14.23;;;9.45;;
17141;SDS011;32805;53.556;9.944;2022-11-11T07:42:03;17.40;;;9.10;;
17141;SDS011;32805;53.556;9.944;2022-11-11T07:44:49;18.52;;;10.07;;
17141;SDS011;32805;53.556;9.944;2022-11-11T07:47:37;23.65;;;10.70;;
17141;SDS011;32805;53.556;9.944;2022-11-11T07:50:24;17.23;;;11.00;;
17141;SDS011;32805;53.556;9.944;2022-11-11T07:53:11;20.75;;;10.82;;
17141;SDS011;32805;53.556;9.944;2022-11-11T07:55:57;19.50;;;10.38;;
17141;SDS011;32805;53.556;9.944;2022-11-11T07:58:43;19.15;;;11.05;;
17141;SDS011;32805;53.556;9.944;2022-11-11T08:01:30;17.88;;;10.38;;
17141;SDS011;32805;53.556;9.944;2022-11-11T08:04:17;20.17;;;11.52;;
17141;SDS011;32805;53.556;9.944;2022-11-11T08:07:04;23.42;;;11.85;;
17141;SDS011;32805;53.556;9.944;2022-11-11T08:09:51;18.58;;;11.52;;
17141;SDS011;32805;53.556;9.944;2022-11-11T08:12:37;20.67;;;10.30;;
17141;SDS011;32805;53.556;9.944;2022-11-11T08:15:42;25.15;;;12.20;;
17141;SDS011;32805;53.556;9.944;2022-11-11T08:18:28;18.13;;;11.13;;
17141;SDS011;32805;53.556;9.944;2022-11-11T08:21:16;21.48;;;10.88;;
17141;SDS011;32805;53.556;9.944;2022-11-11T08:24:02;21.48;;;12.85;;
17141;SDS011;32805;53.556;9.944;2022-11-11T08:27:10;21.02;;;13.18;;
17141;SDS011;32805;53.556;9.944;2022-11-11T08:29:57;27.40;;;13.18;;
17141;SDS011;32805;53.556;9.944;2022-11-11T08:32:43;18.20;;;11.52;;
17141;SDS011;32805;53.556;9.944;2022-11-11T08:35:30;24.40;;;12.90;;
17141;SDS011;32805;53.556;9.944;2022-11-11T08:38:20;21.02;;;11.75;;
17141;SDS011;32805;53.556;9.944;2022-11-11T08:41:07;21.58;;;13.32;;
17141;SDS011;32805;53.556;9.944;2022-11-11T08:43:54;18.33;;;12.15;;
17141;SDS011;32805;53.556;9.944;2022-11-11T08:46:41;19.50;;;12.55;;
17141;SDS011;32805;53.556;9.944;2022-11-11T08:49:27;16.80;;;11.80;;
17141;SDS011;32805;53.556;9.944;2022-11-11T08:52:14;22.60;;;12.05;;
17141;SDS011;32805;53.556;9.944;2022-11-11T08:55:02;23.80;;;13.73;;
17141;SDS011;32805;53.556;9.944;2022-11-11T08:57:56;21.30;;;13.60;;
17141;SDS011;32805;53.556;9.944;2022-11-11T09:00:43;20.27;;;12.77;;
17141;SDS011;32805;53.556;9.944;2022-11-11T09:03:29;18.48;;;12.32;;
17141;SDS011;32805;53.556;9.944;2022-11-11T09:06:16;21.25;;;12.90;;
17141;SDS011;32805;53.556;9.944;2022-11-11T09:09:02;22.60;;;13.05;;
17141;SDS011;32805;53.556;9.944;2022-11-11T09:11:50;22.13;;;12.43;;
17141;SDS011;32805;53.556;9.944;2022-11-11T09:14:37;20.60;;;11.95;;
17141;SDS011;32805;53.556;9.944;2022-11-11T09:17:25;33.85;;;15.13;;
17141;SDS011;32805;53.556;9.944;2022-11-11T09:20:12;16.85;;;12.05;;
17141;SDS011;32805;53.556;9.944;2022-11-11T09:22:58;21.98;;;12.68;;
17141;SDS011;32805;53.556;9.944;2022-11-11T09:25:44;18.50;;;10.40;;
17141;SDS011;32805;53.556;9.944;2022-11-11T09:28:32;29.33;;;13.20;;
17141;SDS011;32805;53.556;9.944;2022-11-11T09:31:19;23.85;;;14.00;;
17141;SDS011;32805;53.556;9.944;2022-11-11T09:34:26;18.65;;;12.88;;
17141;SDS011;32805;53.556;9.944;2022-11-11T09:37:12;20.13;;;11.55;;
17141;SDS011;32805;53.556;9.944;2022-11-11T09:39:58;21.10;;;13.88;;
17141;SDS011;32805;53.556;9.944;2022-11-11T09:42:47;18.98;;;11.40;;
17141;SDS011;32805;53.556;9.944;2022-11-11T09:45:43;20.02;;;13.10;;
17141;SDS011;32805;53.556;9.944;2022-11-11T09:48:41;22.40;;;13.68;;
17141;SDS011;32805;53.556;9.944;2022-11-11T09:51:38;18.20;;;12.27;;
17141;SDS011;32805;53.556;9.944;2022-11-11T09:54:33;17.92;;;11.65;;
17141;SDS011;32805;53.556;9.944;2022-11-11T09:57:24;22.52;;;13.73;;
17141;SDS011;32805;53.556;9.944;2022-11-11T10:00:18;17.50;;;11.50;;
17141;SDS011;32805;53.556;9.944;2022-11-11T10:03:12;17.90;;;11.07;;
17141;SDS011;32805;53.556;9.944;2022-11-11T10:06:02;17.63;;;12.27;;
17141;SDS011;32805;53.556;9.944;2022-11-11T10:08:55;16.02;;;12.18;;
17141;SDS011;32805;53.556;9.944;2022-11-11T10:11:47;18.42;;;12.10;;
17141;SDS011;32805;53.556;9.944;2022-11-11T10:14:40;12.60;;;9.05;;
17141;SDS011;32805;53.556;9.944;2022-11-11T10:17:31;16.60;;;11.88;;
17141;SDS011;32805;53.556;9.944;2022-11-11T10:20:25;20.23;;;11.70;;
17141;SDS011;32805;53.556;9.944;2022-11-11T10:23:15;17.33;;;11.98;;
17141;SDS011;32805;53.556;9.944;2022-11-11T10:26:03;20.13;;;11.88;;
17141;SDS011;32805;53.556;9.944;2022-11-11T10:28:56;17.40;;;10.63;;
17141;SDS011;32805;53.556;9.944;2022-11-11T10:31:46;18.92;;;10.77;;
17141;SDS011;32805;53.556;9.944;2022-11-11T10:34:40;19.55;;;12.93;;
17141;SDS011;32805;53.556;9.944;2022-11-11T10:37:29;17.83;;;11.15;;
17141;SDS011;32805;53.556;9.944;2022-11-11T10:40:24;18.67;;;11.23;;
17141;SDS011;32805;53.556;9.944;2022-11-11T10:43:17;14.85;;;10.35;;
17141;SDS011;32805;53.556;9.944;2022-11-11T10:46:08;15.55;;;11.23;;
17141;SDS011;32805;53.556;9.944;2022-11-11T10:49:01;18.25;;;11.02;;
17141;SDS011;32805;53.556;9.944;2022-11-11T10:51:53;18.13;;;9.35;;
17141;SDS011;32805;53.556;9.944;2022-11-11T10:54:48;17.30;;;10.70;;
17141;SDS011;32805;53.556;9.944;2022-11-11T10:57:40;15.10;;;10.40;;
17141;SDS011;32805;53.556;9.944;2022-11-11T11:00:31;15.48;;;10.57;;
17141;SDS011;32805;53.556;9.944;2022-11-11T11:03:29;16.15;;;11.43;;
17141;SDS011;32805;53.556;9.944;2022-11-11T11:06:19;17.20;;;10.55;;
17141;SDS011;32805;53.556;9.944;2022-11-11T11:09:17;18.30;;;10.82;;
17141;SDS011;32805;53.556;9.944;2022-11-11T11:12:08;17.85;;;10.25;;
17141;SDS011;32805;53.556;9.944;2022-11-11T11:15:01;14.40;;;10.80;;
17141;SDS011;32805;53.556;9.944;2022-11-11T11:17:52;18.75;;;11.07;;
17141;SDS011;32805;53.556;9.944;2022-11-11T11:20:53;19.90;;;12.63;;
17141;SDS011;32805;53.556;9.944;2022-11-11T11:23:41;19.45;;;12.48;;
17141;SDS011;32805;53.556;9.944;2022-11-11T11:26:40;16.55;;;10.20;;
17141;SDS011;32805;53.556;9.944;2022-11-11T11:29:32;21.10;;;11.70;;
17141;SDS011;32805;53.556;9.944;2022-11-11T11:32:20;16.52;;;10.93;;
17141;SDS011;32805;53.556;9.944;2022-11-11T11:35:13;19.90;;;11.77;;
17141;SDS011;32805;53.556;9.944;2022-11-11T11:38:17;17.95;;;11.85;;
17141;SDS011;32805;53.556;9.944;2022-11-11T11:41:03;18.20;;;10.50;;
17141;SDS011;32805;53.556;9.944;2022-11-11T11:43:50;15.40;;;11.05;;
17141;SDS011;32805;53.556;9.944;2022-11-11T11:46:37;19.10;;;11.32;;
17141;SDS011;32805;53.556;9.944;2022-11-11T11:49:28;20.77;;;11.02;;
17141;SDS011;32805;53.556;9.944;2022-11-11T11:52:28;14.40;;;10.00;;
17141;SDS011;32805;53.556;9.944;2022-11-11T11:55:27;20.50;;;12.52;;
17141;SDS011;32805;53.556;9.944;2022-11-11T11:58:20;19.92;;;10.38;;
17141;SDS011;32805;53.556;9.944;2022-11-11T12:01:16;18.60;;;12.38;;
17141;SDS011;32805;53.556;9.944;2022-11-11T12:04:14;19.90;;;12.45;;
17141;SDS011;32805;53.556;9.944;2022-11-11T12:07:15;16.48;;;10.95;;
17141;SDS011;32805;53.556;9.944;2022-11-11T12:10:16;17.35;;;11.73;;
17141;SDS011;32805;53.556;9.944;2022-11-11T12:13:13;17.25;;;12.32;;
17141;SDS011;32805;53.556;9.944;2022-11-11T12:16:11;21.48;;;12.90;;
17141;SDS011;32805;53.556;9.944;2022-11-11T12:19:16;17.58;;;11.95;;
17141;SDS011;32805;53.556;9.944;2022-11-11T12:22:21;16.10;;;11.63;;
17141;SDS011;32805;53.556;9.944;2022-11-11T12:25:16;20.17;;;12.35;;
17141;SDS011;32805;53.556;9.944;2022-11-11T12:28:09;16.05;;;11.65;;
17141;SDS011;32805;53.556;9.944;2022-11-11T12:31:06;17.75;;;11.55;;
17141;SDS011;32805;53.556;9.944;2022-11-11T12:34:17;20.92;;;13.48;;
17141;SDS011;32805;53.556;9.944;2022-11-11T12:37:16;15.77;;;10.95;;
17141;SDS011;32805;53.556;9.944;2022-11-11T12:40:15;17.17;;;11.07;;
17141;SDS011;32805;53.556;9.944;2022-11-11T12:43:11;15.52;;;10.40;;
17141;SDS011;32805;53.556;9.944;2022-11-11T12:46:05;16.02;;;10.57;;
17141;SDS011;32805;53.556;9.944;2022-11-11T12:49:01;14.95;;;10.85;;
17141;SDS011;32805;53.556;9.944;2022-11-11T12:51:57;18.20;;;11.25;;
17141;SDS011;32805;53.556;9.944;2022-11-11T12:54:52;19.70;;;12.32;;
17141;SDS011;32805;53.556;9.944;2022-11-11T12:57:56;16.15;;;11.70;;
17141;SDS011;32805;53.556;9.944;2022-11-11T13:00:57;16.27;;;12.77;;
17141;SDS011;32805;53.556;9.944;2022-11-11T13:03:59;16.95;;;11.77;;
17141;SDS011;32805;53.556;9.944;2022-11-11T13:06:59;15.30;;;10.77;;
17141;SDS011;32805;53.556;9.944;2022-11-11T13:10:12;18.20;;;12.20;;
17141;SDS011;32805;53.556;9.944;2022-11-11T13:13:12;17.63;;;12.43;;
17141;SDS011;32805;53.556;9.944;2022-11-11T13:16:11;22.83;;;12.63;;
17141;SDS011;32805;53.556;9.944;2022-11-11T13:18:59;15.90;;;11.98;;
17141;SDS011;32805;53.556;9.944;2022-11-11T13:21:58;22.90;;;12.60;;
17141;SDS011;32805;53.556;9.944;2022-11-11T13:24:48;17.75;;;12.50;;
17141;SDS011;32805;53.556;9.944;2022-11-11T13:27:38;20.67;;;12.65;;
17141;SDS011;32805;53.556;9.944;2022-11-11T13:30:35;16.35;;;11.32;;
17141;SDS011;32805;53.556;9.944;2022-11-11T13:33:34;16.80;;;11.73;;
17141;SDS011;32805;53.556;9.944;2022-11-11T13:36:25;17.13;;;11.50;;
17141;SDS011;32805;53.556;9.944;2022-11-11T13:39:25;17.98;;;12.65;;
17141;SDS011;32805;53.556;9.944;2022-11-11T13:42:18;19.00;;;11.98;;
17141;SDS011;32805;53.556;9.944;2022-11-11T13:45:07;19.05;;;12.65;;
17141;SDS011;32805;53.556;9.944;2022-11-11T13:48:14;18.23;;;12.85;;
17141;SDS011;32805;53.556;9.944;2022-11-11T13:51:09;20.08;;;13.05;;
17141;SDS011;32805;53.556;9.944;2022-11-11T13:53:58;19.35;;;12.60;;
17141;SDS011;32805;53.556;9.944;2022-11-11T13:56:48;16.25;;;12.52;;
17141;SDS011;32805;53.556;9.944;2022-11-11T13:59:37;14.35;;;11.88;;
17141;SDS011;32805;53.556;9.944;2022-11-11T14:02:28;16.60;;;11.75;;
17141;SDS011;32805;53.556;9.944;2022-11-11T14:05:17;18.08;;;12.48;;
17141;SDS011;32805;53.556;9.944;2022-11-11T14:08:06;17.63;;;12.57;;
17141;SDS011;32805;53.556;9.944;2022-11-11T14:10:54;18.90;;;11.68;;
17141;SDS011;32805;53.556;9.944;2022-11-11T14:13:45;17.73;;;12.27;;
17141;SDS011;32805;53.556;9.944;2022-11-11T14:19:48;19.63;;;12.35;;
17141;SDS011;32805;53.556;9.944;2022-11-11T14:22:34;18.35;;;11.13;;
17141;SDS011;32805;53.556;9.944;2022-11-11T14:25:22;16.02;;;12.18;;
17141;SDS011;32805;53.556;9.944;2022-11-11T14:28:18;18.77;;;11.63;;
17141;SDS011;32805;53.556;9.944;2022-11-11T14:34:45;17.83;;;12.13;;
17141;SDS011;32805;53.556;9.944;2022-11-11T14:37:52;18.02;;;12.20;;
17141;SDS011;32805;53.556;9.944;2022-11-11T14:40:46;18.42;;;12.18;;
17141;SDS011;32805;53.556;9.944;2022-11-11T14:43:34;16.05;;;12.25;;
17141;SDS011;32805;53.556;9.944;2022-11-11T14:46:24;15.65;;;11.75;;
17141;SDS011;32805;53.556;9.944;2022-11-11T14:49:10;16.90;;;12.23;;
17141;SDS011;32805;53.556;9.944;2022-11-11T14:52:33;16.45;;;11.02;;
17141;SDS011;32805;53.556;9.944;2022-11-11T14:55:23;14.35;;;11.93;;
17141;SDS011;32805;53.556;9.944;2022-11-11T14:58:12;18.88;;;12.52;;
17141;SDS011;32805;53.556;9.944;2022-11-11T15:01:02;18.13;;;12.68;;
17141;SDS011;32805;53.556;9.944;2022-11-11T15:04:00;15.52;;;12.20;;
17141;SDS011;32805;53.556;9.944;2022-11-11T15:06:52;18.60;;;12.55;;
17141;SDS011;32805;53.556;9.944;2022-11-11T15:09:46;16.08;;;12.65;;
17141;SDS011;32805;53.556;9.944;2022-11-11T15:15:49;18.10;;;13.10;;
17141;SDS011;32805;53.556;9.944;2022-11-11T15:18:45;17.35;;;12.43;;
17141;SDS011;32805;53.556;9.944;2022-11-11T15:21:42;17.90;;;12.73;;
17141;SDS011;32805;53.556;9.944;2022-11-11T15:24:45;14.27;;;12.18;;
17141;SDS011;32805;53.556;9.944;2022-11-11T15:27:39;15.80;;;12.32;;
17141;SDS011;32805;53.556;9.944;2022-11-11T15:33:49;34.72;;;16.85;;
17141;SDS011;32805;53.556;9.944;2022-11-11T15:36:50;25.40;;;15.20;;
17141;SDS011;32805;53.556;9.944;2022-11-11T15:39:39;15.75;;;11.10;;
17141;SDS011;32805;53.556;9.944;2022-11-11T15:42:30;14.73;;;12.13;;
17141;SDS011;32805;53.556;9.944;2022-11-11T15:45:22;16.83;;;12.20;;
17141;SDS011;32805;53.556;9.944;2022-11-11T15:48:15;19.63;;;12.68;;
17141;SDS011;32805;53.556;9.944;2022-11-11T15:51:13;18.70;;;12.90;;
17141;SDS011;32805;53.556;9.944;2022-11-11T15:57:26;17.50;;;12.45;;
17141;SDS011;32805;53.556;9.944;2022-11-11T16:03:19;14.13;;;11.32;;
17141;SDS011;32805;53.556;9.944;2022-11-11T16:06:16;16.50;;;11.93;;
17141;SDS011;32805;53.556;9.944;2022-11-11T16:09:03;20.05;;;14.52;;
17141;SDS011;32805;53.556;9.944;2022-11-11T16:11:49;22.08;;;12.95;;
17141;SDS011;32805;53.556;9.944;2022-11-11T16:14:40;17.35;;;12.85;;
17141;SDS011;32805;53.556;9.944;2022-11-11T16:17:31;17.15;;;12.30;;
17141;SDS011;32805;53.556;9.944;2022-11-11T16:20:24;14.98;;;12.23;;
17141;SDS011;32805;53.556;9.944;2022-11-11T16:23:15;18.50;;;13.10;;
17141;SDS011;32805;53.556;9.944;2022-11-11T16:26:03;20.15;;;11.90;;
17141;SDS011;32805;53.556;9.944;2022-11-11T16:28:51;17.80;;;12.63;;
17141;SDS011;32805;53.556;9.944;2022-11-11T16:31:39;15.73;;;12.98;;
17141;SDS011;32805;53.556;9.944;2022-11-11T16:34:35;16.45;;;11.40;;
17141;SDS011;32805;53.556;9.944;2022-11-11T16:37:27;16.30;;;12.07;;
17141;SDS011;32805;53.556;9.944;2022-11-11T16:43:26;18.25;;;12.07;;
17141;SDS011;32805;53.556;9.944;2022-11-11T16:46:15;15.05;;;12.02;;
17141;SDS011;32805;53.556;9.944;2022-11-11T16:49:25;14.43;;;11.30;;
17141;SDS011;32805;53.556;9.944;2022-11-11T16:52:18;20.10;;;13.25;;
17141;SDS011;32805;53.556;9.944;2022-11-11T16:55:07;16.42;;;12.27;;
17141;SDS011;32805;53.556;9.944;2022-11-11T16:57:55;15.98;;;12.48;;
17141;SDS011;32805;53.556;9.944;2022-11-11T17:00:42;16.85;;;13.07;;
17141;SDS011;32805;53.556;9.944;2022-11-11T17:03:30;23.52;;;14.32;;
17141;SDS011;32805;53.556;9.944;2022-11-11T17:06:17;18.45;;;12.90;;
17141;SDS011;32805;53.556;9.944;2022-11-11T17:09:06;17.33;;;13.88;;
17141;SDS011;32805;53.556;9.944;2022-11-11T17:12:13;24.67;;;15.70;;
17141;SDS011;32805;53.556;9.944;2022-11-11T17:14:59;26.40;;;14.82;;
17141;SDS011;32805;53.556;9.944;2022-11-11T17:17:45;21.83;;;14.77;;